Great Bend, New York
Current Conditions -  °F | °C
As of 7:58 PM on Saturday 20 Dec 2014 (Local Time) from KGTB Reporting Station
Overcast Overcast  
Wind Chill: 19°   Ceiling: 2400
Heat Index: 19°   Visibility: 10mi
Dew Point: 14°   Wind: 2mph
Humidity: 80%   Direction: 140°SE
Pressure: 30.29"   Gusts: NA
Location:  44.03°N, 75.72°W
Report Text: KGTB 210058Z AUTO 14002KT 10SM OVC024 M07/M10 A3029 RMK AO2 SLP272 T10701100
Loading
Personal Weather Stations






























Interactive Weather Map New forecast layout! Learn more

10-Day Weather Forecast

Advertisements
Track Severe Weather on mobile